sensor_id;sensor_type;location;lat;lon;timestamp;pressure;altitude;pressure_sealevel;temperature;humidity
73501;BME280;61721;42.206;25.320;2022-12-18T00:02:13;100375.22;;;10.21;87.93
73501;BME280;61721;42.206;25.320;2022-12-18T00:04:40;100363.31;;;10.14;88.26
73501;BME280;61721;42.206;25.320;2022-12-18T00:07:08;100361.59;;;10.02;88.71
73501;BME280;61721;42.206;25.320;2022-12-18T00:09:35;100362.31;;;10.38;87.25
73501;BME280;61721;42.206;25.320;2022-12-18T00:12:03;100370.38;;;10.26;87.30
73501;BME280;61721;42.206;25.320;2022-12-18T00:14:30;100350.66;;;10.39;87.92
73501;BME280;61721;42.206;25.320;2022-12-18T00:16:57;100320.00;;;10.32;87.68
73501;BME280;61721;42.206;25.320;2022-12-18T00:19:27;100278.06;;;10.32;88.22
73501;BME280;61721;42.206;25.320;2022-12-18T00:21:54;100273.56;;;10.33;88.65
73501;BME280;61721;42.206;25.320;2022-12-18T00:24:23;100284.25;;;10.33;89.11
73501;BME280;61721;42.206;25.320;2022-12-18T00:26:51;100308.97;;;10.57;88.88
73501;BME280;61721;42.206;25.320;2022-12-18T00:29:19;100323.78;;;10.72;87.94
73501;BME280;61721;42.206;25.320;2022-12-18T00:31:46;100345.78;;;10.44;88.24
73501;BME280;61721;42.206;25.320;2022-12-18T00:34:13;100369.25;;;10.07;90.37
73501;BME280;61721;42.206;25.320;2022-12-18T00:36:41;100371.34;;;10.14;91.16
73501;BME280;61721;42.206;25.320;2022-12-18T00:39:10;100370.38;;;10.26;89.44
73501;BME280;61721;42.206;25.320;2022-12-18T00:41:38;100358.94;;;10.36;89.99
73501;BME280;61721;42.206;25.320;2022-12-18T00:44:22;100369.72;;;10.88;87.46
73501;BME280;61721;42.206;25.320;2022-12-18T00:46:49;100400.63;;;10.05;90.51
73501;BME280;61721;42.206;25.320;2022-12-18T00:49:17;100394.44;;;10.15;90.63
73501;BME280;61721;42.206;25.320;2022-12-18T00:51:46;100392.97;;;10.11;90.90
73501;BME280;61721;42.206;25.320;2022-12-18T00:54:14;100386.16;;;10.07;90.38
73501;BME280;61721;42.206;25.320;2022-12-18T00:56:41;100388.34;;;10.02;91.26
73501;BME280;61721;42.206;25.320;2022-12-18T00:59:09;100379.97;;;10.07;91.58
73501;BME280;61721;42.206;25.320;2022-12-18T01:01:36;100376.34;;;10.73;88.92
73501;BME280;61721;42.206;25.320;2022-12-18T01:04:03;100380.47;;;10.77;87.71
73501;BME280;61721;42.206;25.320;2022-12-18T01:06:31;100390.66;;;10.51;88.30
73501;BME280;61721;42.206;25.320;2022-12-18T01:08:59;100389.72;;;10.73;87.74
73501;BME280;61721;42.206;25.320;2022-12-18T01:11:26;100388.09;;;10.50;88.54
73501;BME280;61721;42.206;25.320;2022-12-18T01:13:54;100396.28;;;10.80;86.89
73501;BME280;61721;42.206;25.320;2022-12-18T01:16:21;100406.84;;;10.39;88.83
73501;BME280;61721;42.206;25.320;2022-12-18T01:18:51;100406.63;;;10.31;88.65
73501;BME280;61721;42.206;25.320;2022-12-18T01:21:20;100404.06;;;10.40;89.70
73501;BME280;61721;42.206;25.320;2022-12-18T01:23:51;100394.41;;;10.60;88.26
73501;BME280;61721;42.206;25.320;2022-12-18T01:26:21;100407.00;;;10.80;87.82
73501;BME280;61721;42.206;25.320;2022-12-18T01:28:48;100416.78;;;10.03;90.03
73501;BME280;61721;42.206;25.320;2022-12-18T01:31:18;100404.88;;;9.96;90.73
73501;BME280;61721;42.206;25.320;2022-12-18T01:33:46;100401.50;;;10.39;89.62
73501;BME280;61721;42.206;25.320;2022-12-18T01:36:18;100399.06;;;10.36;88.92
73501;BME280;61721;42.206;25.320;2022-12-18T01:38:46;100401.97;;;10.33;89.59
73501;BME280;61721;42.206;25.320;2022-12-18T01:41:13;100396.13;;;10.50;88.80
73501;BME280;61721;42.206;25.320;2022-12-18T01:43:48;100391.34;;;10.64;88.53
73501;BME280;61721;42.206;25.320;2022-12-18T01:46:17;100375.31;;;10.96;86.95
73501;BME280;61721;42.206;25.320;2022-12-18T01:48:47;100379.25;;;10.81;86.59
73501;BME280;61721;42.206;25.320;2022-12-18T01:51:15;100390.56;;;10.31;89.38
73501;BME280;61721;42.206;25.320;2022-12-18T01:53:43;100387.41;;;10.25;89.58
73501;BME280;61721;42.206;25.320;2022-12-18T01:56:14;100386.00;;;10.53;89.09
73501;BME280;61721;42.206;25.320;2022-12-18T01:58:50;100386.56;;;10.79;88.49
73501;BME280;61721;42.206;25.320;2022-12-18T02:01:21;100390.47;;;11.28;86.38
73501;BME280;61721;42.206;25.320;2022-12-18T02:03:49;100380.72;;;11.06;86.23
73501;BME280;61721;42.206;25.320;2022-12-18T02:06:20;100385.31;;;11.15;86.39
73501;BME280;61721;42.206;25.320;2022-12-18T02:08:59;100395.16;;;10.51;88.35
73501;BME280;61721;42.206;25.320;2022-12-18T02:11:39;100388.03;;;10.72;87.98
73501;BME280;61721;42.206;25.320;2022-12-18T02:14:18;100392.41;;;11.05;87.29
73501;BME280;61721;42.206;25.320;2022-12-18T02:16:53;100396.97;;;10.50;88.52
73501;BME280;61721;42.206;25.320;2022-12-18T02:19:39;100396.88;;;10.41;90.01
73501;BME280;61721;42.206;25.320;2022-12-18T02:22:20;100399.31;;;10.10;91.08
73501;BME280;61721;42.206;25.320;2022-12-18T02:25:06;100405.88;;;10.40;90.90
73501;BME280;61721;42.206;25.320;2022-12-18T02:27:41;100397.34;;;10.46;90.36
73501;BME280;61721;42.206;25.320;2022-12-18T02:30:11;100393.97;;;11.07;88.01
73501;BME280;61721;42.206;25.320;2022-12-18T02:32:41;100402.16;;;10.74;87.54
73501;BME280;61721;42.206;25.320;2022-12-18T02:35:12;100399.34;;;11.07;86.91
73501;BME280;61721;42.206;25.320;2022-12-18T02:37:42;100400.91;;;11.10;86.25
73501;BME280;61721;42.206;25.320;2022-12-18T02:40:11;100399.66;;;10.50;89.32
73501;BME280;61721;42.206;25.320;2022-12-18T02:42:41;100404.13;;;10.61;88.25
73501;BME280;61721;42.206;25.320;2022-12-18T02:45:09;100397.06;;;10.71;89.19
73501;BME280;61721;42.206;25.320;2022-12-18T02:47:38;100405.50;;;10.87;87.26
73501;BME280;61721;42.206;25.320;2022-12-18T02:50:11;100402.81;;;10.87;87.38
73501;BME280;61721;42.206;25.320;2022-12-18T02:52:50;100417.16;;;10.97;87.74
73501;BME280;61721;42.206;25.320;2022-12-18T02:55:32;100416.75;;;10.70;88.33
73501;BME280;61721;42.206;25.320;2022-12-18T02:58:08;100424.59;;;10.17;91.35
73501;BME280;61721;42.206;25.320;2022-12-18T03:00:40;100420.34;;;10.91;88.95
73501;BME280;61721;42.206;25.320;2022-12-18T03:03:13;100429.19;;;11.03;87.33
73501;BME280;61721;42.206;25.320;2022-12-18T03:05:50;100432.72;;;11.03;87.78
73501;BME280;61721;42.206;25.320;2022-12-18T03:08:31;100428.22;;;11.04;87.56
73501;BME280;61721;42.206;25.320;2022-12-18T03:11:02;100430.03;;;11.03;87.36
73501;BME280;61721;42.206;25.320;2022-12-18T03:13:35;100428.78;;;11.07;87.83
73501;BME280;61721;42.206;25.320;2022-12-18T03:16:06;100435.91;;;10.97;87.52
73501;BME280;61721;42.206;25.320;2022-12-18T03:18:37;100444.94;;;10.96;87.11
73501;BME280;61721;42.206;25.320;2022-12-18T03:21:06;100454.41;;;11.00;86.11
73501;BME280;61721;42.206;25.320;2022-12-18T03:23:40;100461.41;;;10.81;87.49
73501;BME280;61721;42.206;25.320;2022-12-18T03:26:11;100450.69;;;11.12;85.70
73501;BME280;61721;42.206;25.320;2022-12-18T03:28:44;100456.97;;;11.02;86.04
73501;BME280;61721;42.206;25.320;2022-12-18T03:31:14;100454.53;;;10.99;85.85
73501;BME280;61721;42.206;25.320;2022-12-18T03:33:45;100465.31;;;11.08;85.45
73501;BME280;61721;42.206;25.320;2022-12-18T03:36:14;100467.38;;;10.73;86.92
73501;BME280;61721;42.206;25.320;2022-12-18T03:38:41;100468.59;;;10.69;87.90
73501;BME280;61721;42.206;25.320;2022-12-18T03:41:14;100469.28;;;10.82;87.29
73501;BME280;61721;42.206;25.320;2022-12-18T03:43:49;100472.97;;;10.81;87.30
73501;BME280;61721;42.206;25.320;2022-12-18T03:46:26;100469.81;;;10.76;87.32
73501;BME280;61721;42.206;25.320;2022-12-18T03:49:00;100475.41;;;10.73;86.79
73501;BME280;61721;42.206;25.320;2022-12-18T03:51:34;100478.59;;;10.56;88.19
73501;BME280;61721;42.206;25.320;2022-12-18T03:54:06;100484.19;;;10.53;89.19
73501;BME280;61721;42.206;25.320;2022-12-18T03:56:38;100486.31;;;10.92;87.53
73501;BME280;61721;42.206;25.320;2022-12-18T03:59:11;100493.66;;;10.68;88.07
73501;BME280;61721;42.206;25.320;2022-12-18T04:01:42;100482.97;;;10.23;89.91
73501;BME280;61721;42.206;25.320;2022-12-18T04:04:12;100490.97;;;10.90;87.46
73501;BME280;61721;42.206;25.320;2022-12-18T04:06:41;100498.53;;;10.63;87.59
73501;BME280;61721;42.206;25.320;2022-12-18T04:09:10;100499.88;;;10.68;88.23
73501;BME280;61721;42.206;25.320;2022-12-18T04:11:37;100511.16;;;10.72;87.88
73501;BME280;61721;42.206;25.320;2022-12-18T04:14:04;100506.19;;;10.67;88.63
73501;BME280;61721;42.206;25.320;2022-12-18T04:16:33;100513.75;;;10.51;89.62
73501;BME280;61721;42.206;25.320;2022-12-18T04:19:00;100516.03;;;10.78;88.58
73501;BME280;61721;42.206;25.320;2022-12-18T04:21:27;100521.75;;;10.85;88.44
73501;BME280;61721;42.206;25.320;2022-12-18T04:23:54;100515.81;;;10.81;87.94
73501;BME280;61721;42.206;25.320;2022-12-18T04:26:22;100511.91;;;10.63;88.44
73501;BME280;61721;42.206;25.320;2022-12-18T04:28:49;100527.25;;;10.61;88.63
73501;BME280;61721;42.206;25.320;2022-12-18T04:31:16;100525.78;;;10.79;88.32
73501;BME280;61721;42.206;25.320;2022-12-18T04:33:45;100530.16;;;10.58;88.78
73501;BME280;61721;42.206;25.320;2022-12-18T04:36:12;100527.97;;;10.52;88.86
73501;BME280;61721;42.206;25.320;2022-12-18T04:38:39;100523.50;;;10.41;89.76
73501;BME280;61721;42.206;25.320;2022-12-18T04:41:06;100535.63;;;10.67;89.27
73501;BME280;61721;42.206;25.320;2022-12-18T04:43:34;100530.53;;;10.87;87.86
73501;BME280;61721;42.206;25.320;2022-12-18T04:46:03;100533.81;;;10.79;88.06
73501;BME280;61721;42.206;25.320;2022-12-18T04:48:30;100536.84;;;10.86;88.85
73501;BME280;61721;42.206;25.320;2022-12-18T04:50:59;100541.94;;;11.00;88.39
73501;BME280;61721;42.206;25.320;2022-12-18T04:53:27;100542.31;;;10.95;87.67
73501;BME280;61721;42.206;25.320;2022-12-18T04:56:03;100536.22;;;10.82;88.44
73501;BME280;61721;42.206;25.320;2022-12-18T04:58:30;100549.66;;;10.71;89.35
73501;BME280;61721;42.206;25.320;2022-12-18T05:00:57;100556.69;;;10.83;89.07
73501;BME280;61721;42.206;25.320;2022-12-18T05:03:25;100563.25;;;10.68;89.29
73501;BME280;61721;42.206;25.320;2022-12-18T05:05:52;100562.41;;;10.90;88.38
73501;BME280;61721;42.206;25.320;2022-12-18T05:08:20;100558.63;;;10.59;89.94
73501;BME280;61721;42.206;25.320;2022-12-18T05:10:48;100567.41;;;10.61;90.30
73501;BME280;61721;42.206;25.320;2022-12-18T05:13:15;100570.22;;;10.82;88.99
73501;BME280;61721;42.206;25.320;2022-12-18T05:15:42;100573.44;;;11.07;88.20
73501;BME280;61721;42.206;25.320;2022-12-18T05:18:09;100574.22;;;10.76;88.72
73501;BME280;61721;42.206;25.320;2022-12-18T05:20:36;100578.34;;;10.80;88.92
73501;BME280;61721;42.206;25.320;2022-12-18T05:23:03;100581.16;;;10.79;88.75
73501;BME280;61721;42.206;25.320;2022-12-18T05:25:32;100583.44;;;10.72;88.80
73501;BME280;61721;42.206;25.320;2022-12-18T05:27:59;100587.09;;;10.82;88.46
73501;BME280;61721;42.206;25.320;2022-12-18T05:30:26;100592.69;;;10.57;89.19
73501;BME280;61721;42.206;25.320;2022-12-18T05:32:54;100588.31;;;10.45;91.11
73501;BME280;61721;42.206;25.320;2022-12-18T05:35:21;100596.63;;;10.75;90.11
73501;BME280;61721;42.206;25.320;2022-12-18T05:37:48;100598.56;;;10.51;89.70
73501;BME280;61721;42.206;25.320;2022-12-18T05:40:15;100600.25;;;10.74;89.53
73501;BME280;61721;42.206;25.320;2022-12-18T05:42:44;100601.00;;;10.65;89.39
73501;BME280;61721;42.206;25.320;2022-12-18T05:45:11;100601.00;;;10.65;90.19
73501;BME280;61721;42.206;25.320;2022-12-18T05:47:38;100607.09;;;11.00;88.40
73501;BME280;61721;42.206;25.320;2022-12-18T05:50:07;100611.22;;;10.93;88.00
73501;BME280;61721;42.206;25.320;2022-12-18T05:52:34;100629.09;;;11.04;88.62
73501;BME280;61721;42.206;25.320;2022-12-18T05:55:01;100627.53;;;10.90;88.05
73501;BME280;61721;42.206;25.320;2022-12-18T05:57:28;100627.03;;;10.85;88.30
73501;BME280;61721;42.206;25.320;2022-12-18T05:59:57;100626.78;;;10.77;88.30
73501;BME280;61721;42.206;25.320;2022-12-18T06:02:24;100620.94;;;10.83;89.17
73501;BME280;61721;42.206;25.320;2022-12-18T06:04:51;100638.47;;;11.09;88.29
73501;BME280;61721;42.206;25.320;2022-12-18T06:07:18;100642.88;;;11.10;87.46
73501;BME280;61721;42.206;25.320;2022-12-18T06:09:46;100649.56;;;11.05;87.07
73501;BME280;61721;42.206;25.320;2022-12-18T06:12:13;100651.09;;;11.52;85.35
73501;BME280;61721;42.206;25.320;2022-12-18T06:14:40;100654.00;;;11.60;84.96
73501;BME280;61721;42.206;25.320;2022-12-18T06:17:08;100669.88;;;11.19;86.32
73501;BME280;61721;42.206;25.320;2022-12-18T06:19:36;100672.56;;;11.52;85.58
73501;BME280;61721;42.206;25.320;2022-12-18T06:22:04;100686.41;;;11.79;84.08
73501;BME280;61721;42.206;25.320;2022-12-18T06:24:31;100688.63;;;11.52;84.94
73501;BME280;61721;42.206;25.320;2022-12-18T06:26:58;100691.09;;;11.22;86.03
73501;BME280;61721;42.206;25.320;2022-12-18T06:29:25;100700.81;;;11.45;85.84
73501;BME280;61721;42.206;25.320;2022-12-18T06:31:53;100707.16;;;11.33;85.70
73501;BME280;61721;42.206;25.320;2022-12-18T06:34:22;100705.69;;;11.62;83.82
73501;BME280;61721;42.206;25.320;2022-12-18T06:36:50;100715.34;;;11.42;84.57
73501;BME280;61721;42.206;25.320;2022-12-18T06:39:17;100710.06;;;11.19;84.96
73501;BME280;61721;42.206;25.320;2022-12-18T06:41:44;100707.63;;;10.93;85.21
73501;BME280;61721;42.206;25.320;2022-12-18T06:44:12;100717.88;;;11.33;83.24
73501;BME280;61721;42.206;25.320;2022-12-18T06:46:39;100718.50;;;11.25;83.97
73501;BME280;61721;42.206;25.320;2022-12-18T06:49:06;100726.06;;;11.42;82.15
73501;BME280;61721;42.206;25.320;2022-12-18T06:51:36;100728.31;;;11.02;83.80
73501;BME280;61721;42.206;25.320;2022-12-18T06:54:04;100730.28;;;11.00;82.77
73501;BME280;61721;42.206;25.320;2022-12-18T06:56:31;100733.81;;;11.23;80.79
73501;BME280;61721;42.206;25.320;2022-12-18T06:58:58;100741.19;;;10.75;82.84
73501;BME280;61721;42.206;25.320;2022-12-18T07:01:28;100748.72;;;10.70;81.70
73501;BME280;61721;42.206;25.320;2022-12-18T07:03:56;100750.19;;;10.74;81.47
73501;BME280;61721;42.206;25.320;2022-12-18T07:06:25;100747.78;;;10.47;81.97
73501;BME280;61721;42.206;25.320;2022-12-18T07:09:00;100755.22;;;10.20;83.91
73501;BME280;61721;42.206;25.320;2022-12-18T07:11:32;100765.53;;;10.83;81.80
73501;BME280;61721;42.206;25.320;2022-12-18T07:13:59;100759.94;;;10.75;81.32
73501;BME280;61721;42.206;25.320;2022-12-18T07:16:27;100763.44;;;10.64;81.93
73501;BME280;61721;42.206;25.320;2022-12-18T07:18:57;100767.25;;;10.84;81.61
73501;BME280;61721;42.206;25.320;2022-12-18T07:21:25;100772.06;;;10.68;83.04
73501;BME280;61721;42.206;25.320;2022-12-18T07:23:52;100773.06;;;10.78;81.85
73501;BME280;61721;42.206;25.320;2022-12-18T07:26:22;100774.34;;;10.50;83.05
73501;BME280;61721;42.206;25.320;2022-12-18T07:28:50;100776.47;;;10.69;82.54
73501;BME280;61721;42.206;25.320;2022-12-18T07:31:21;100781.09;;;10.78;82.25
73501;BME280;61721;42.206;25.320;2022-12-18T07:33:49;100775.59;;;11.14;81.67
73501;BME280;61721;42.206;25.320;2022-12-18T07:36:18;100780.47;;;11.09;80.78
73501;BME280;61721;42.206;25.320;2022-12-18T07:38:48;100774.78;;;10.79;81.83
73501;BME280;61721;42.206;25.320;2022-12-18T07:41:16;100787.78;;;10.61;83.05
73501;BME280;61721;42.206;25.320;2022-12-18T07:43:46;100786.75;;;10.97;82.19
73501;BME280;61721;42.206;25.320;2022-12-18T07:46:15;100787.47;;;10.88;81.01
73501;BME280;61721;42.206;25.320;2022-12-18T07:48:44;100791.63;;;10.92;80.65
73501;BME280;61721;42.206;25.320;2022-12-18T07:51:11;100794.53;;;10.89;80.40
73501;BME280;61721;42.206;25.320;2022-12-18T07:53:52;100789.09;;;10.56;81.55
73501;BME280;61721;42.206;25.320;2022-12-18T07:56:20;100798.84;;;10.68;82.22
73501;BME280;61721;42.206;25.320;2022-12-18T07:58:53;100797.00;;;11.03;80.58
73501;BME280;61721;42.206;25.320;2022-12-18T08:01:23;100806.31;;;10.76;81.18
73501;BME280;61721;42.206;25.320;2022-12-18T08:03:50;100805.53;;;11.08;79.83
73501;BME280;61721;42.206;25.320;2022-12-18T08:06:27;100806.16;;;10.66;81.17
73501;BME280;61721;42.206;25.320;2022-12-18T08:08:55;100811.81;;;10.85;80.34
73501;BME280;61721;42.206;25.320;2022-12-18T08:11:24;100811.81;;;10.85;80.29
73501;BME280;61721;42.206;25.320;2022-12-18T08:13:53;100816.16;;;10.75;80.35
73501;BME280;61721;42.206;25.320;2022-12-18T08:16:21;100826.03;;;10.75;80.26
73501;BME280;61721;42.206;25.320;2022-12-18T08:18:49;100833.50;;;10.93;80.36
73501;BME280;61721;42.206;25.320;2022-12-18T08:21:17;100835.44;;;10.56;80.52
73501;BME280;61721;42.206;25.320;2022-12-18T08:23:47;100840.97;;;10.77;80.33
73501;BME280;61721;42.206;25.320;2022-12-18T08:26:15;100843.25;;;10.94;79.58
73501;BME280;61721;42.206;25.320;2022-12-18T08:28:42;100845.88;;;11.18;79.83
73501;BME280;61721;42.206;25.320;2022-12-18T08:31:11;100848.59;;;10.94;79.76
73501;BME280;61721;42.206;25.320;2022-12-18T08:33:39;100846.75;;;10.84;79.45
73501;BME280;61721;42.206;25.320;2022-12-18T08:36:09;100854.06;;;11.17;78.10
73501;BME280;61721;42.206;25.320;2022-12-18T08:38:36;100854.50;;;11.10;77.72
73501;BME280;61721;42.206;25.320;2022-12-18T08:41:05;100856.72;;;11.28;77.43
73501;BME280;61721;42.206;25.320;2022-12-18T08:43:33;100858.16;;;10.75;79.10
73501;BME280;61721;42.206;25.320;2022-12-18T08:46:20;100856.06;;;11.02;77.74
73501;BME280;61721;42.206;25.320;2022-12-18T08:48:50;100852.03;;;10.96;78.01
73501;BME280;61721;42.206;25.320;2022-12-18T08:51:18;100854.22;;;10.44;79.00
73501;BME280;61721;42.206;25.320;2022-12-18T08:53:46;100859.00;;;10.75;78.46
73501;BME280;61721;42.206;25.320;2022-12-18T08:56:14;100853.66;;;10.75;78.85
73501;BME280;61721;42.206;25.320;2022-12-18T08:58:42;100848.34;;;10.97;78.09
73501;BME280;61721;42.206;25.320;2022-12-18T09:01:11;100846.13;;;10.80;77.96
73501;BME280;61721;42.206;25.320;2022-12-18T09:03:40;100846.63;;;10.38;80.71
73501;BME280;61721;42.206;25.320;2022-12-18T09:06:07;100846.00;;;11.17;78.76
73501;BME280;61721;42.206;25.320;2022-12-18T09:08:34;100841.47;;;11.06;78.03
73501;BME280;61721;42.206;25.320;2022-12-18T09:11:02;100843.81;;;11.22;77.43
73501;BME280;61721;42.206;25.320;2022-12-18T09:13:29;100833.97;;;10.87;76.94
73501;BME280;61721;42.206;25.320;2022-12-18T09:15:56;100840.91;;;11.25;76.39
73501;BME280;61721;42.206;25.320;2022-12-18T09:18:24;100848.19;;;11.23;77.50
73501;BME280;61721;42.206;25.320;2022-12-18T09:20:53;100846.69;;;11.07;78.48
73501;BME280;61721;42.206;25.320;2022-12-18T09:23:20;100848.91;;;11.13;77.36
73501;BME280;61721;42.206;25.320;2022-12-18T09:25:47;100851.75;;;11.34;77.42
73501;BME280;61721;42.206;25.320;2022-12-18T09:28:17;100863.06;;;11.15;77.65
73501;BME280;61721;42.206;25.320;2022-12-18T09:30:46;100857.59;;;10.93;79.10
73501;BME280;61721;42.206;25.320;2022-12-18T09:33:14;100859.91;;;10.63;79.60
73501;BME280;61721;42.206;25.320;2022-12-18T09:35:42;100851.28;;;10.94;79.16
73501;BME280;61721;42.206;25.320;2022-12-18T09:38:14;100853.31;;;11.14;78.88
73501;BME280;61721;42.206;25.320;2022-12-18T09:40:46;100854.72;;;11.07;78.13
73501;BME280;61721;42.206;25.320;2022-12-18T09:43:17;100855.81;;;10.70;78.60
73501;BME280;61721;42.206;25.320;2022-12-18T09:45:50;100862.50;;;10.99;77.85
73501;BME280;61721;42.206;25.320;2022-12-18T09:48:21;100856.44;;;10.73;78.89
73501;BME280;61721;42.206;25.320;2022-12-18T09:50:50;100857.91;;;11.12;77.40
73501;BME280;61721;42.206;25.320;2022-12-18T09:53:24;100858.75;;;10.78;79.72
73501;BME280;61721;42.206;25.320;2022-12-18T09:55:54;100860.59;;;10.54;80.37
73501;BME280;61721;42.206;25.320;2022-12-18T09:58:24;100863.03;;;10.57;81.51
73501;BME280;61721;42.206;25.320;2022-12-18T10:00:53;100870.44;;;10.53;81.26
73501;BME280;61721;42.206;25.320;2022-12-18T10:03:21;100870.16;;;10.45;83.50
73501;BME280;61721;42.206;25.320;2022-12-18T10:05:57;100864.03;;;10.56;82.83
73501;BME280;61721;42.206;25.320;2022-12-18T10:08:36;100877.63;;;10.53;83.66
73501;BME280;61721;42.206;25.320;2022-12-18T10:11:26;100864.19;;;10.65;82.09
73501;BME280;61721;42.206;25.320;2022-12-18T10:13:59;100873.53;;;10.36;83.44
73501;BME280;61721;42.206;25.320;2022-12-18T10:16:35;100874.59;;;10.57;84.02
73501;BME280;61721;42.206;25.320;2022-12-18T10:19:18;100880.75;;;10.47;83.57
73501;BME280;61721;42.206;25.320;2022-12-18T10:21:54;100867.59;;;10.44;84.69
73501;BME280;61721;42.206;25.320;2022-12-18T10:24:30;100868.63;;;10.54;84.20
73501;BME280;61721;42.206;25.320;2022-12-18T10:27:12;100866.69;;;10.07;86.44
73501;BME280;61721;42.206;25.320;2022-12-18T10:29:42;100860.56;;;10.66;85.14
73501;BME280;61721;42.206;25.320;2022-12-18T10:32:14;100867.56;;;10.07;88.09
73501;BME280;61721;42.206;25.320;2022-12-18T10:34:46;100871.16;;;10.32;86.54
73501;BME280;61721;42.206;25.320;2022-12-18T10:37:17;100881.25;;;10.15;87.19
73501;BME280;61721;42.206;25.320;2022-12-18T10:39:46;100885.19;;;10.59;85.50
73501;BME280;61721;42.206;25.320;2022-12-18T10:42:31;100882.09;;;10.28;86.94
73501;BME280;61721;42.206;25.320;2022-12-18T10:45:01;100875.03;;;10.27;86.44
73501;BME280;61721;42.206;25.320;2022-12-18T10:47:30;100886.41;;;9.93;88.78
73501;BME280;61721;42.206;25.320;2022-12-18T10:49:57;100879.16;;;9.95;89.18
73501;BME280;61721;42.206;25.320;2022-12-18T10:52:25;100882.66;;;10.81;85.92
73501;BME280;61721;42.206;25.320;2022-12-18T10:54:55;100883.56;;;10.33;88.43
73501;BME280;61721;42.206;25.320;2022-12-18T10:57:34;100890.25;;;10.14;88.93
73501;BME280;61721;42.206;25.320;2022-12-18T11:00:21;100894.84;;;10.12;88.29
73501;BME280;61721;42.206;25.320;2022-12-18T11:02:49;100891.59;;;10.33;88.46
73501;BME280;61721;42.206;25.320;2022-12-18T11:05:30;100890.81;;;9.81;89.68
73501;BME280;61721;42.206;25.320;2022-12-18T11:07:58;100888.56;;;9.75;90.25
73501;BME280;61721;42.206;25.320;2022-12-18T11:10:31;100886.44;;;9.68;91.04
73501;BME280;61721;42.206;25.320;2022-12-18T11:13:10;100896.88;;;10.21;89.04
73501;BME280;61721;42.206;25.320;2022-12-18T11:15:40;100900.34;;;9.73;90.53
73501;BME280;61721;42.206;25.320;2022-12-18T11:18:19;100904.06;;;9.83;90.83
73501;BME280;61721;42.206;25.320;2022-12-18T11:20:53;100906.84;;;9.94;90.54
73501;BME280;61721;42.206;25.320;2022-12-18T11:23:21;100903.31;;;9.81;90.83
73501;BME280;61721;42.206;25.320;2022-12-18T11:26:01;100912.06;;;10.08;90.44
73501;BME280;61721;42.206;25.320;2022-12-18T11:28:36;100916.69;;;9.81;90.53
73501;BME280;61721;42.206;25.320;2022-12-18T11:31:27;100915.41;;;9.49;90.88
73501;BME280;61721;42.206;25.320;2022-12-18T11:34:01;100901.13;;;10.11;88.77
73501;BME280;61721;42.206;25.320;2022-12-18T11:36:33;100911.63;;;10.14;87.57
73501;BME280;61721;42.206;25.320;2022-12-18T11:39:10;100915.94;;;9.54;90.21
73501;BME280;61721;42.206;25.320;2022-12-18T11:41:46;100915.94;;;9.54;90.43
73501;BME280;61721;42.206;25.320;2022-12-18T11:44:36;100921.94;;;9.57;91.27
73501;BME280;61721;42.206;25.320;2022-12-18T11:47:11;100918.06;;;9.61;91.31
73501;BME280;61721;42.206;25.320;2022-12-18T11:49:41;100926.09;;;9.86;89.58
73501;BME280;61721;42.206;25.320;2022-12-18T11:52:14;100919.06;;;9.73;89.32
73501;BME280;61721;42.206;25.320;2022-12-18T11:54:42;100911.44;;;9.67;89.90
73501;BME280;61721;42.206;25.320;2022-12-18T11:57:16;100916.03;;;10.03;88.19
73501;BME280;61721;42.206;25.320;2022-12-18T11:59:52;100921.47;;;10.01;86.76
73501;BME280;61721;42.206;25.320;2022-12-18T12:02:40;100923.03;;;9.80;88.00
73501;BME280;61721;42.206;25.320;2022-12-18T12:05:23;100920.44;;;9.78;88.83
73501;BME280;61721;42.206;25.320;2022-12-18T12:07:56;100915.09;;;9.53;89.08
73501;BME280;61721;42.206;25.320;2022-12-18T12:10:38;100918.09;;;9.49;89.51
73501;BME280;61721;42.206;25.320;2022-12-18T12:13:27;100922.69;;;9.59;89.70
73501;BME280;61721;42.206;25.320;2022-12-18T12:16:06;100918.91;;;10.12;86.81
73501;BME280;61721;42.206;25.320;2022-12-18T12:18:45;100931.13;;;9.66;90.03
73501;BME280;61721;42.206;25.320;2022-12-18T12:21:20;100917.44;;;9.70;90.41
73501;BME280;61721;42.206;25.320;2022-12-18T12:23:53;100920.63;;;10.13;87.14
73501;BME280;61721;42.206;25.320;2022-12-18T12:26:30;100935.63;;;9.78;89.31
73501;BME280;61721;42.206;25.320;2022-12-18T12:29:04;100929.84;;;9.71;89.28
73501;BME280;61721;42.206;25.320;2022-12-18T12:31:54;100931.03;;;9.67;88.04
73501;BME280;61721;42.206;25.320;2022-12-18T12:34:29;100944.38;;;9.55;89.00
73501;BME280;61721;42.206;25.320;2022-12-18T12:37:11;100935.09;;;9.73;89.02
73501;BME280;61721;42.206;25.320;2022-12-18T12:39:48;100936.66;;;9.37;89.22
73501;BME280;61721;42.206;25.320;2022-12-18T12:42:33;100943.34;;;9.70;88.13
73501;BME280;61721;42.206;25.320;2022-12-18T12:45:30;100946.44;;;9.64;89.54
73501;BME280;61721;42.206;25.320;2022-12-18T12:48:01;100943.84;;;9.62;88.91
73501;BME280;61721;42.206;25.320;2022-12-18T12:50:33;100952.50;;;9.66;89.77
73501;BME280;61721;42.206;25.320;2022-12-18T12:53:01;100966.63;;;9.68;89.37
73501;BME280;61721;42.206;25.320;2022-12-18T12:55:32;100964.78;;;9.56;88.74
73501;BME280;61721;42.206;25.320;2022-12-18T12:58:06;100962.56;;;9.50;88.91
73501;BME280;61721;42.206;25.320;2022-12-18T13:00:49;100970.56;;;9.62;88.74